createdAt,value
2022-10-18T00:08:06.903Z,8.15
2022-10-18T00:18:09.147Z,7.18
2022-10-18T00:28:11.158Z,7.78
2022-10-18T00:38:16.379Z,6.47
2022-10-18T00:48:19.533Z,7.15
2022-10-18T00:58:24.780Z,6.95
2022-10-18T01:08:35.242Z,7.25
2022-10-18T01:18:52.130Z,7.10
2022-10-18T01:29:15.802Z,6.35
2022-10-18T01:39:29.667Z,7.00
2022-10-18T01:49:33.522Z,5.57
2022-10-18T01:59:47.257Z,6.15
2022-10-18T02:10:00.274Z,5.35
2022-10-18T02:20:05.794Z,6.55
2022-10-18T02:30:10.514Z,6.20
2022-10-18T02:40:12.711Z,5.85
2022-10-18T02:50:16.609Z,5.95
2022-10-18T03:00:18.801Z,6.25
2022-10-18T03:10:23.849Z,5.43
2022-10-18T03:20:29.150Z,5.80
2022-10-18T03:30:32.632Z,5.80
2022-10-18T03:40:36.984Z,5.32
2022-10-18T03:50:41.419Z,5.90
2022-10-18T04:00:54.739Z,6.07
2022-10-18T04:11:01.604Z,5.57
2022-10-18T04:21:03.666Z,5.43
2022-10-18T04:31:08.263Z,5.07
2022-10-18T04:41:12.297Z,6.68
2022-10-18T04:51:14.307Z,5.68
2022-10-18T05:01:19.182Z,5.13
2022-10-18T05:11:25.919Z,5.88
2022-10-18T05:21:33.296Z,5.15
2022-10-18T05:31:38.301Z,5.50
2022-10-18T05:41:42.819Z,5.93
2022-10-18T05:51:47.076Z,6.03
2022-10-18T06:01:53.574Z,6.00
2022-10-18T06:12:01.008Z,6.10
2022-10-18T06:22:05.442Z,5.97
2022-10-18T06:32:10.576Z,6.00
2022-10-18T06:42:19.179Z,5.85
2022-10-18T06:52:25.888Z,6.15
2022-10-18T07:02:28.366Z,5.90
2022-10-18T07:12:31.662Z,6.35
2022-10-18T07:22:34.569Z,6.53
2022-10-18T07:32:41.087Z,6.60
2022-10-18T07:42:45.695Z,7.45
2022-10-18T07:52:48.151Z,7.00
2022-10-18T08:02:50.202Z,7.57
2022-10-18T08:12:54.770Z,7.55
2022-10-18T08:23:00.091Z,7.53
2022-10-18T08:33:04.585Z,8.73
2022-10-18T08:43:26.867Z,8.38
2022-10-18T08:53:43.758Z,9.40
2022-10-18T09:04:15.150Z,8.13
2022-10-18T09:14:23.630Z,10.07
2022-10-18T09:24:36.417Z,9.88
2022-10-18T09:34:55.473Z,10.82
2022-10-18T09:45:16.846Z,10.15
2022-10-18T09:55:26.960Z,11.70
2022-10-18T10:05:35.347Z,12.38
2022-10-18T10:15:40.520Z,12.10
2022-10-18T10:25:56.184Z,12.25
2022-10-18T10:36:03.383Z,11.52
2022-10-18T10:46:19.899Z,12.18
2022-10-18T10:56:29.395Z,13.93
2022-10-18T11:06:45.323Z,13.55
2022-10-18T11:17:21.195Z,13.27
2022-10-18T11:27:38.712Z,13.57
2022-10-18T11:38:05.933Z,13.73
2022-10-18T11:48:48.142Z,13.60
2022-10-18T11:58:58.442Z,13.27
2022-10-18T12:09:24.494Z,14.30
2022-10-18T12:19:33.182Z,13.63
2022-10-18T12:29:50.215Z,14.77
2022-10-18T12:40:09.747Z,13.57
2022-10-18T12:50:57.798Z,14.10
2022-10-18T13:01:02.470Z,15.27
2022-10-18T13:11:09.172Z,13.70
2022-10-18T13:21:44.749Z,14.30
2022-10-18T13:32:02.057Z,14.23
2022-10-18T13:42:04.433Z,16.10
2022-10-18T13:52:28.254Z,15.70
2022-10-18T14:03:12.868Z,15.68
2022-10-18T14:13:38.448Z,15.63
2022-10-18T14:23:44.791Z,16.00
2022-10-18T14:33:58.002Z,15.73
2022-10-18T14:44:35.768Z,15.35
2022-10-18T14:54:40.385Z,15.55
2022-10-18T15:04:44.974Z,16.63
2022-10-18T15:14:52.494Z,15.60
2022-10-18T15:25:33.929Z,4.93
2022-10-18T15:35:38.912Z,1.52
2022-10-18T15:56:03.047Z,4.55
2022-10-18T16:06:12.277Z,5.40
2022-10-18T16:16:27.202Z,7.40
2022-10-18T16:26:32.368Z,6.90
2022-10-18T16:36:39.941Z,7.40
2022-10-18T16:46:52.426Z,7.88
2022-10-18T16:56:59.060Z,10.18
2022-10-18T17:07:04.931Z,10.32
2022-10-18T17:17:07.118Z,12.88
2022-10-18T17:27:10.606Z,12.95
2022-10-18T17:37:13.867Z,12.90
2022-10-18T17:47:15.896Z,8.45
2022-10-18T17:57:40.904Z,4.43
2022-10-18T18:07:56.123Z,4.72
2022-10-18T18:17:58.499Z,5.43
2022-10-18T18:28:06.595Z,5.65
2022-10-18T18:38:09.588Z,6.70
2022-10-18T18:48:19.089Z,4.80
2022-10-18T18:58:27.830Z,6.13
2022-10-18T19:08:29.810Z,5.55
2022-10-18T19:18:36.016Z,5.40
2022-10-18T19:28:41.007Z,6.78
2022-10-18T19:38:45.495Z,9.35
2022-10-18T19:48:54.258Z,7.70
2022-10-18T19:59:04.282Z,7.15
2022-10-18T20:09:17.685Z,7.78
2022-10-18T20:19:22.598Z,8.00
2022-10-18T20:29:27.009Z,7.40
2022-10-18T20:39:31.401Z,6.80
2022-10-18T20:49:33.423Z,7.03
2022-10-18T20:59:35.996Z,7.20
2022-10-18T21:09:38.108Z,9.60
2022-10-18T21:19:40.184Z,12.43
2022-10-18T21:29:42.339Z,11.75
2022-10-18T21:39:47.850Z,12.93
2022-10-18T21:49:49.831Z,15.35
2022-10-18T21:59:56.619Z,15.68
2022-10-18T22:09:59.633Z,16.58
2022-10-18T22:20:01.768Z,15.95
2022-10-18T22:30:03.980Z,16.27
2022-10-18T22:40:06.708Z,16.13
2022-10-18T22:50:09.330Z,17.20
2022-10-18T23:00:18.593Z,17.00
2022-10-18T23:10:23.005Z,16.60
2022-10-18T23:20:30.601Z,16.95
2022-10-18T23:30:37.109Z,16.00
2022-10-18T23:40:46.597Z,16.15
2022-10-18T23:50:48.693Z,14.80
